CheckWX is a tool to help pilots better visualize weather data.  It is not intended as a substitute for an official pre-flight weather briefing.

01:20:34 UTC

KASL METAR
Harrison County Airport
Marshall, Texas, USA
Current

26 mins ago

KASL 200055Z AUTO 00000KT 10SM CLR 32/22 A2997 RMK AO1 T03220217
Observed
Aug-20 @ 00:55 UTC
Visibility
10 SM
Flight Rules
VFR
Cloud Levels
  • Clear skies
Temperature
32°C / 90°F
Dewpoint
22°C / 72°F
Heat Index
36°C / 97°F
Humidity
55%
Altimeter
29.97" Hg
Pressure
1014.92 hPa
Previous

46 mins ago

KASL 200035Z AUTO 10SM CLR 33/21 A2997 RMK AO1 T03260212
Observed
Aug-20 @ 00:35 UTC
Visibility
10 SM
Flight Rules
VFR
Cloud Levels
  • Clear skies
Temperature
33°C / 91°F
Dewpoint
21°C / 70°F
Heat Index
36°C / 96°F
Humidity
49%
Altimeter
29.97" Hg
Pressure
1014.92 hPa
Previous

1 hour ago

KASL 192355Z AUTO 10SM CLR 34/21 A2997 RMK AO1 T03360213 10365 20336
Observed
Aug-19 @ 23:55 UTC
Visibility
10 SM
Flight Rules
VFR
Cloud Levels
  • Clear skies
Temperature
34°C / 93°F
Dewpoint
21°C / 70°F
Heat Index
37°C / 99°F
Humidity
47%
Altimeter
29.97" Hg
Pressure
1014.92 hPa